createdAt,value
2023-04-29T00:00:30.547Z,14.1429
2023-04-29T00:01:30.585Z,14.1429
2023-04-29T00:02:32.007Z,14.0714
2023-04-29T00:03:30.797Z,14.0714
2023-04-29T00:04:30.859Z,14.0714
2023-04-29T00:05:30.857Z,14
2023-04-29T00:06:30.911Z,14
2023-04-29T00:07:30.829Z,14
2023-04-29T00:08:30.885Z,14
2023-04-29T00:09:30.925Z,14
2023-04-29T00:10:30.966Z,14
2023-04-29T00:11:31.007Z,14
2023-04-29T00:12:31.064Z,14
2023-04-29T00:13:31.138Z,14
2023-04-29T00:14:31.129Z,14
2023-04-29T00:15:31.175Z,14
2023-04-29T00:16:31.255Z,14
2023-04-29T00:17:31.315Z,14
2023-04-29T00:18:31.295Z,14
2023-04-29T00:19:31.345Z,14
2023-04-29T00:20:31.385Z,14
2023-04-29T00:21:31.425Z,14
2023-04-29T00:22:31.490Z,14
2023-04-29T00:23:31.507Z,14
2023-04-29T00:24:31.601Z,14.0714
2023-04-29T00:25:31.584Z,14.0714
2023-04-29T00:26:31.618Z,14.0714
2023-04-29T00:27:31.670Z,14.0714
2023-04-29T00:28:31.712Z,14.1429
2023-04-29T00:29:31.751Z,14.1429
2023-04-29T00:30:31.804Z,14.1429
2023-04-29T00:31:31.891Z,14.1429
2023-04-29T00:32:31.910Z,14.1429
2023-04-29T00:33:31.912Z,14.2143
2023-04-29T00:34:31.950Z,14.2143
2023-04-29T00:35:31.989Z,14.2143
2023-04-29T00:36:32.017Z,14.2143
2023-04-29T00:37:32.061Z,14.2143
2023-04-29T00:38:32.104Z,14.2143
2023-04-29T00:39:32.145Z,14.2143
2023-04-29T00:40:32.191Z,14.1429
2023-04-29T00:41:32.222Z,14.1429
2023-04-29T00:42:32.268Z,14.1429
2023-04-29T00:43:32.295Z,14.0714
2023-04-29T00:44:32.346Z,14.0714
2023-04-29T00:45:32.374Z,14
2023-04-29T00:46:32.457Z,14
2023-04-29T00:47:32.488Z,14
2023-04-29T00:48:32.508Z,14
2023-04-29T00:49:32.554Z,13.9286
2023-04-29T00:50:32.601Z,13.9286
2023-04-29T00:51:32.640Z,13.8571
2023-04-29T00:52:32.675Z,13.8571
2023-04-29T00:53:32.705Z,13.7857
2023-04-29T00:54:32.748Z,13.7857
2023-04-29T00:55:32.837Z,13.7143
2023-04-29T00:56:32.863Z,13.7143
2023-04-29T00:57:32.870Z,13.7143
2023-04-29T00:58:32.917Z,13.7143
2023-04-29T00:59:32.946Z,13.7143
2023-04-29T01:00:33.005Z,13.7143
2023-04-29T01:01:33.107Z,13.7143
2023-04-29T01:02:33.168Z,13.7857
2023-04-29T01:03:33.230Z,13.7857
2023-04-29T01:04:33.214Z,13.7857
2023-04-29T01:05:33.193Z,13.7857
2023-04-29T01:06:33.219Z,13.7857
2023-04-29T01:07:33.269Z,13.7857
2023-04-29T01:08:33.303Z,13.7857
2023-04-29T01:09:33.350Z,13.7857
2023-04-29T01:10:33.391Z,13.8571
2023-04-29T01:11:33.439Z,13.8571
2023-04-29T01:12:33.478Z,13.8571
2023-04-29T01:13:33.512Z,13.8571
2023-04-29T01:14:33.559Z,13.8571
2023-04-29T01:15:33.593Z,13.7857
2023-04-29T01:16:33.687Z,13.7857
2023-04-29T01:17:33.720Z,13.7857
2023-04-29T01:18:33.734Z,13.7857
2023-04-29T01:19:33.762Z,13.7857
2023-04-29T01:20:33.820Z,13.7857
2023-04-29T01:21:33.847Z,13.7143
2023-04-29T01:22:33.901Z,13.7857
2023-04-29T01:23:33.934Z,13.7857
2023-04-29T01:24:33.978Z,13.7857
2023-04-29T01:25:34.020Z,13.7857
2023-04-29T01:26:34.065Z,13.7143
2023-04-29T01:27:34.108Z,13.7143
2023-04-29T01:28:34.148Z,13.7143
2023-04-29T01:29:34.200Z,13.7143
2023-04-29T01:30:34.236Z,13.7143
2023-04-29T01:31:34.326Z,13.7143
2023-04-29T01:32:34.793Z,13.6429
2023-04-29T01:33:34.359Z,13.6429
2023-04-29T01:34:34.421Z,13.6429
2023-04-29T01:35:34.435Z,13.6429
2023-04-29T01:36:34.470Z,13.6429
2023-04-29T01:37:34.512Z,13.6429
2023-04-29T01:38:34.536Z,13.6429
2023-04-29T01:39:34.595Z,13.6429
2023-04-29T01:40:34.614Z,13.5714
2023-04-29T01:41:34.648Z,13.5714
2023-04-29T01:42:34.689Z,13.5714
2023-04-29T01:43:34.753Z,13.5714
2023-04-29T01:44:34.799Z,13.5714
2023-04-29T01:45:34.814Z,13.5
2023-04-29T01:46:34.960Z,13.5
2023-04-29T01:47:34.937Z,13.5
2023-04-29T01:48:34.940Z,13.5
2023-04-29T01:49:34.987Z,13.5
2023-04-29T01:50:35.014Z,13.4286
2023-04-29T01:51:35.062Z,13.4286
2023-04-29T01:52:35.099Z,13.4286
2023-04-29T01:53:35.137Z,13.4286
2023-04-29T01:54:35.172Z,13.4286
2023-04-29T01:55:35.208Z,13.4286
2023-04-29T01:56:35.244Z,13.4286
2023-04-29T01:57:35.293Z,13.4286
2023-04-29T01:58:35.325Z,13.4286
2023-04-29T01:59:35.369Z,13.4286
2023-04-29T02:00:35.422Z,13.4286
2023-04-29T02:01:35.448Z,13.4286
2023-04-29T02:02:35.601Z,13.4286
2023-04-29T02:03:35.707Z,13.4286
2023-04-29T02:04:35.576Z,13.5
2023-04-29T02:05:35.593Z,13.5
2023-04-29T02:06:35.623Z,13.5
2023-04-29T02:07:35.657Z,13.5
2023-04-29T02:08:35.704Z,13.5
2023-04-29T02:09:35.731Z,13.5
2023-04-29T02:10:35.783Z,13.5
2023-04-29T02:11:35.811Z,13.5
2023-04-29T02:12:35.848Z,13.5
2023-04-29T02:13:35.896Z,13.5
2023-04-29T02:14:37.562Z,13.5
2023-04-29T02:15:36.006Z,13.5
2023-04-29T02:16:36.037Z,13.5
2023-04-29T02:17:36.132Z,13.5
2023-04-29T02:18:36.119Z,13.5714
2023-04-29T02:19:36.156Z,13.5
2023-04-29T02:20:36.213Z,13.5714
2023-04-29T02:21:36.236Z,13.5714
2023-04-29T02:22:36.291Z,13.5714
2023-04-29T02:23:36.323Z,13.5714
2023-04-29T02:24:36.363Z,13.5714
2023-04-29T02:25:36.400Z,13.5714
2023-04-29T02:26:36.441Z,13.5714
2023-04-29T02:27:36.481Z,13.6429
2023-04-29T02:28:36.531Z,13.6429
2023-04-29T02:29:36.553Z,13.6429
2023-04-29T02:30:36.589Z,13.6429
2023-04-29T02:31:36.639Z,13.6429
2023-04-29T02:32:36.686Z,13.6429
2023-04-29T02:33:36.714Z,13.7143
2023-04-29T02:34:36.746Z,13.7143
2023-04-29T02:35:36.788Z,13.7143
2023-04-29T02:36:36.840Z,13.7143
2023-04-29T02:37:36.890Z,13.7143
2023-04-29T02:38:36.903Z,13.7143
2023-04-29T02:39:36.941Z,13.7143
2023-04-29T02:40:36.981Z,13.7143
2023-04-29T02:41:37.037Z,13.7143
2023-04-29T02:42:37.069Z,13.7143
2023-04-29T02:43:37.102Z,13.7143
2023-04-29T02:44:37.141Z,13.7857
2023-04-29T02:45:37.223Z,13.7857
2023-04-29T02:46:37.231Z,13.7857
2023-04-29T02:47:37.312Z,13.7857
2023-04-29T02:48:37.301Z,13.7857
2023-04-29T02:49:37.344Z,13.7857
2023-04-29T02:50:37.389Z,13.7857
2023-04-29T02:51:37.423Z,13.7857
2023-04-29T02:52:37.485Z,13.7857
2023-04-29T02:53:37.509Z,13.7857
2023-04-29T02:54:37.548Z,13.7857
2023-04-29T02:55:37.591Z,13.7857
2023-04-29T02:56:37.620Z,13.8571
2023-04-29T02:57:37.673Z,13.8571
2023-04-29T02:58:37.709Z,13.8571
2023-04-29T02:59:37.754Z,13.8571
2023-04-29T03:00:37.799Z,13.8571
2023-04-29T03:01:37.869Z,13.8571
2023-04-29T03:02:38.091Z,13.8571
2023-04-29T03:03:38.076Z,13.8571
2023-04-29T03:04:37.954Z,13.8571
2023-04-29T03:05:37.994Z,13.8571
2023-04-29T03:06:38.042Z,13.8571
2023-04-29T03:07:38.082Z,13.8571
2023-04-29T03:08:38.115Z,13.8571
2023-04-29T03:09:38.172Z,13.8571
2023-04-29T03:10:40.539Z,13.8571
2023-04-29T03:11:38.234Z,13.8571
2023-04-29T03:12:38.286Z,13.8571
2023-04-29T03:13:38.317Z,13.8571
2023-04-29T03:14:38.352Z,13.8571
2023-04-29T03:15:38.397Z,13.9286
2023-04-29T03:16:38.532Z,13.9286
2023-04-29T03:17:38.529Z,13.9286
2023-04-29T03:18:38.527Z,13.9286
2023-04-29T03:19:38.558Z,13.9286
2023-04-29T03:20:38.599Z,13.9286
2023-04-29T03:21:38.630Z,13.9286
2023-04-29T03:22:38.679Z,13.9286
2023-04-29T03:23:38.706Z,13.9286
2023-04-29T03:24:38.754Z,14
2023-04-29T03:25:38.814Z,14
2023-04-29T03:26:38.828Z,14
2023-04-29T03:27:38.869Z,14
2023-04-29T03:28:38.904Z,14
2023-04-29T03:29:38.954Z,14
2023-04-29T03:30:38.978Z,14
2023-04-29T03:31:39.054Z,14
2023-04-29T03:32:39.114Z,14
2023-04-29T03:33:39.097Z,14
2023-04-29T03:34:39.184Z,14
2023-04-29T03:35:39.179Z,14
2023-04-29T03:36:39.217Z,14
2023-04-29T03:37:39.345Z,14
2023-04-29T03:38:39.290Z,14
2023-04-29T03:39:39.338Z,14
2023-04-29T03:40:39.386Z,14.0714
2023-04-29T03:41:39.422Z,14.0714
2023-04-29T03:42:39.460Z,14.0714
2023-04-29T03:43:39.497Z,14.0714
2023-04-29T03:44:39.531Z,14.0714
2023-04-29T03:45:39.576Z,14.0714
2023-04-29T03:46:39.627Z,14.0714
2023-04-29T03:47:39.671Z,14.0714
2023-04-29T03:48:39.685Z,14.0714
2023-04-29T03:49:39.732Z,14.0714
2023-04-29T03:50:39.781Z,14.0714
2023-04-29T03:51:39.819Z,14.0714
2023-04-29T03:52:39.857Z,14.1429
2023-04-29T03:53:39.896Z,14.1429
2023-04-29T03:54:39.924Z,14.1429
2023-04-29T03:55:39.964Z,14.1429
2023-04-29T03:56:40.019Z,14.1429
2023-04-29T03:57:42.218Z,14.1429
2023-04-29T03:58:40.080Z,14.1429
2023-04-29T03:59:40.153Z,14.1429
2023-04-29T04:00:40.198Z,14.1429
2023-04-29T04:01:40.235Z,14.1429
2023-04-29T04:02:40.570Z,14.2143
2023-04-29T04:03:40.446Z,14.2143
2023-04-29T04:04:40.567Z,14.2143
2023-04-29T04:05:40.387Z,14.2143
2023-04-29T04:06:40.406Z,14.2143
2023-04-29T04:07:40.444Z,14.2143
2023-04-29T04:08:40.477Z,14.2143
2023-04-29T04:09:40.545Z,14.2143
2023-04-29T04:10:40.555Z,14.2143
2023-04-29T04:11:40.592Z,14.2857
2023-04-29T04:12:42.157Z,14.2857
2023-04-29T04:13:40.662Z,14.2857
2023-04-29T04:14:40.706Z,14.2857
2023-04-29T04:15:40.731Z,14.2857
2023-04-29T04:16:40.920Z,14.2857
2023-04-29T04:17:40.850Z,14.2857
2023-04-29T04:18:40.855Z,14.2857
2023-04-29T04:19:40.878Z,14.3571
2023-04-29T04:20:40.918Z,14.3571
2023-04-29T04:21:40.950Z,14.3571
2023-04-29T04:22:41.025Z,14.3571
2023-04-29T04:23:41.044Z,14.3571
2023-04-29T04:24:41.071Z,14.3571
2023-04-29T04:25:41.104Z,14.3571
2023-04-29T04:26:41.154Z,14.3571
2023-04-29T04:27:41.193Z,14.3571
2023-04-29T04:28:41.230Z,14.4286
2023-04-29T04:29:41.269Z,14.4286
2023-04-29T04:30:41.313Z,14.4286
2023-04-29T04:31:41.453Z,14.4286
2023-04-29T04:32:41.477Z,14.4286
2023-04-29T04:33:41.493Z,14.4286
2023-04-29T04:34:41.489Z,14.4286
2023-04-29T04:35:41.514Z,14.4286
2023-04-29T04:36:41.557Z,14.4286
2023-04-29T04:37:41.599Z,14.4286
2023-04-29T04:38:41.641Z,14.5
2023-04-29T04:39:41.709Z,14.5
2023-04-29T04:40:41.719Z,14.5
2023-04-29T04:41:41.747Z,14.5
2023-04-29T04:42:41.800Z,14.5
2023-04-29T04:43:41.818Z,14.5
2023-04-29T04:44:41.880Z,14.5
2023-04-29T04:45:41.949Z,14.5
2023-04-29T04:46:41.937Z,14.5
2023-04-29T04:47:41.996Z,14.5
2023-04-29T04:48:42.042Z,14.5
2023-04-29T04:49:42.069Z,14.5
2023-04-29T04:50:42.094Z,14.5
2023-04-29T04:51:42.140Z,14.5
2023-04-29T04:52:42.178Z,14.5
2023-04-29T04:53:42.226Z,14.5
2023-04-29T04:54:42.277Z,14.5
2023-04-29T04:55:42.295Z,14.5
2023-04-29T04:56:42.341Z,14.5
2023-04-29T04:57:42.385Z,14.5
2023-04-29T04:58:42.414Z,14.5
2023-04-29T04:59:42.443Z,14.5714
2023-04-29T05:00:42.479Z,14.5714
2023-04-29T05:01:42.608Z,14.5714
2023-04-29T05:02:42.613Z,14.5714
2023-04-29T05:03:42.770Z,14.5714
2023-04-29T05:04:42.640Z,14.5714
2023-04-29T05:05:42.706Z,14.5714
2023-04-29T05:06:42.703Z,14.5714
2023-04-29T05:07:42.736Z,14.5714
2023-04-29T05:08:42.778Z,14.5714
2023-04-29T05:09:42.817Z,14.5714
2023-04-29T05:10:43.977Z,14.5714
2023-04-29T05:11:42.897Z,14.5714
2023-04-29T05:12:42.945Z,14.5714
2023-04-29T05:13:42.981Z,14.5714
2023-04-29T05:14:43.016Z,14.6429
2023-04-29T05:15:43.072Z,14.6429
2023-04-29T05:16:43.135Z,14.6429
2023-04-29T05:17:43.189Z,14.6429
2023-04-29T05:18:43.179Z,14.6429
2023-04-29T05:19:43.219Z,14.6429
2023-04-29T05:20:43.230Z,14.6429
2023-04-29T05:21:43.276Z,14.6429
2023-04-29T05:22:43.313Z,14.6429
2023-04-29T05:23:43.354Z,14.6429
2023-04-29T05:24:43.391Z,14.6429
2023-04-29T05:25:43.413Z,14.6429
2023-04-29T05:26:43.481Z,14.6429
2023-04-29T05:27:43.505Z,14.7143
2023-04-29T05:28:43.558Z,14.7143
2023-04-29T05:29:43.571Z,14.7143
2023-04-29T05:30:43.836Z,14.7143
2023-04-29T05:31:43.650Z,14.7143
2023-04-29T05:32:43.702Z,14.7143
2023-04-29T05:33:43.728Z,14.7143
2023-04-29T05:34:43.766Z,14.7857
2023-04-29T05:35:43.798Z,14.7857
2023-04-29T05:36:43.846Z,14.7857
2023-04-29T05:37:43.874Z,14.7857
2023-04-29T05:38:43.904Z,14.7857
2023-04-29T05:39:43.940Z,14.7857
2023-04-29T05:40:43.974Z,14.7857
2023-04-29T05:41:44.037Z,14.7857
2023-04-29T05:42:44.064Z,14.7857
2023-04-29T05:43:44.075Z,14.7857
2023-04-29T05:44:44.123Z,14.7857
2023-04-29T05:45:44.158Z,14.7857
2023-04-29T05:46:44.329Z,14.8571
2023-04-29T05:47:44.263Z,14.8571
2023-04-29T05:48:44.272Z,14.8571
2023-04-29T05:49:44.325Z,14.8571
2023-04-29T05:50:44.355Z,14.8571
2023-04-29T05:51:44.380Z,14.8571
2023-04-29T05:52:44.428Z,14.8571
2023-04-29T05:53:44.457Z,14.8571
2023-04-29T05:54:44.494Z,14.8571
2023-04-29T05:55:44.532Z,14.8571
2023-04-29T05:56:44.569Z,14.8571
2023-04-29T05:57:44.607Z,14.8571
2023-04-29T05:58:44.658Z,14.8571
2023-04-29T05:59:44.691Z,14.8571
2023-04-29T06:00:44.726Z,14.8571
2023-04-29T06:01:44.756Z,14.8571
2023-04-29T06:02:57.602Z,14.8571
2023-04-29T06:03:44.953Z,14.8571
2023-04-29T06:04:45.105Z,14.8571
2023-04-29T06:05:45.303Z,14.8571
2023-04-29T06:06:44.975Z,14.8571
2023-04-29T06:07:44.998Z,14.8571
2023-04-29T06:08:45.022Z,14.9286
2023-04-29T06:09:45.066Z,14.9286
2023-04-29T06:10:45.095Z,14.9286
2023-04-29T06:11:45.145Z,14.9286
2023-04-29T06:12:45.190Z,14.9286
2023-04-29T06:13:45.205Z,14.9286
2023-04-29T06:14:45.249Z,14.9286
2023-04-29T06:15:45.291Z,14.9286
2023-04-29T06:16:45.331Z,14.8571
2023-04-29T06:17:45.423Z,14.8571
2023-04-29T06:18:45.393Z,14.8571
2023-04-29T06:19:45.431Z,14.8571
2023-04-29T06:20:45.469Z,14.8571
2023-04-29T06:21:45.518Z,14.8571
2023-04-29T06:22:45.545Z,14.8571
2023-04-29T06:23:45.597Z,14.8571
2023-04-29T06:24:45.636Z,14.7857
2023-04-29T06:25:45.676Z,14.7857
2023-04-29T06:26:45.716Z,14.7857
2023-04-29T06:27:45.735Z,14.7857
2023-04-29T06:28:45.790Z,14.7857
2023-04-29T06:29:45.818Z,14.7857
2023-04-29T06:30:45.870Z,14.7857
2023-04-29T06:31:45.944Z,14.7857
2023-04-29T06:32:45.965Z,14.7857
2023-04-29T06:33:45.979Z,14.7857
2023-04-29T06:34:46.004Z,14.7857
2023-04-29T06:35:46.049Z,14.7857
2023-04-29T06:36:46.088Z,14.7857
2023-04-29T06:37:46.116Z,14.7857
2023-04-29T06:38:46.157Z,14.7857
2023-04-29T06:39:46.244Z,14.7143
2023-04-29T06:40:46.228Z,14.7143
2023-04-29T06:41:46.274Z,14.7143
2023-04-29T06:42:46.320Z,14.7143
2023-04-29T06:43:48.533Z,14.7143
2023-04-29T06:44:46.408Z,14.7143
2023-04-29T06:45:46.427Z,14.7143
2023-04-29T06:46:46.474Z,14.6429
2023-04-29T06:47:46.572Z,14.7143
2023-04-29T06:48:46.536Z,14.7143
2023-04-29T06:49:46.566Z,14.6429
2023-04-29T06:50:46.602Z,14.6429
2023-04-29T06:51:46.647Z,14.6429
2023-04-29T06:52:46.680Z,14.6429
2023-04-29T06:53:46.708Z,14.6429
2023-04-29T06:54:46.758Z,14.6429
2023-04-29T06:55:46.794Z,14.6429
2023-04-29T06:56:46.836Z,14.6429
2023-04-29T06:57:46.868Z,14.6429
2023-04-29T06:58:46.911Z,14.6429
2023-04-29T06:59:46.932Z,14.6429
2023-04-29T07:00:47.002Z,14.5714
2023-04-29T07:01:49.085Z,14.5714
2023-04-29T07:02:47.138Z,14.5714
2023-04-29T07:03:47.258Z,14.5714
2023-04-29T07:04:47.135Z,14.5714
2023-04-29T07:05:47.165Z,14.5714
2023-04-29T07:06:47.374Z,14.5714
2023-04-29T07:07:47.239Z,14.5714
2023-04-29T07:08:47.274Z,14.5714
2023-04-29T07:09:47.303Z,14.5
2023-04-29T07:10:47.350Z,14.5
2023-04-29T07:11:47.417Z,14.5
2023-04-29T07:12:47.503Z,14.5
2023-04-29T07:13:47.465Z,14.5
2023-04-29T07:14:47.503Z,14.5
2023-04-29T07:15:47.560Z,14.5
2023-04-29T07:16:47.621Z,14.5714
2023-04-29T07:17:47.715Z,14.5
2023-04-29T07:18:47.670Z,14.5714
2023-04-29T07:19:47.717Z,14.5714
2023-04-29T07:20:47.742Z,14.5714
2023-04-29T07:21:47.781Z,14.6429
2023-04-29T07:22:47.822Z,14.6429
2023-04-29T07:23:47.875Z,14.6429
2023-04-29T07:24:47.897Z,14.6429
2023-04-29T07:25:47.934Z,14.6429
2023-04-29T07:26:47.984Z,14.6429
2023-04-29T07:27:48.016Z,14.6429
2023-04-29T07:28:48.052Z,14.6429
2023-04-29T07:29:48.097Z,14.6429
2023-04-29T07:30:48.231Z,14.6429
2023-04-29T07:31:48.183Z,14.6429
2023-04-29T07:32:48.282Z,14.6429
2023-04-29T07:33:48.252Z,14.6429
2023-04-29T07:34:48.288Z,14.5714
2023-04-29T07:35:48.320Z,14.5714
2023-04-29T07:36:48.363Z,14.5714
2023-04-29T07:37:48.403Z,14.5714
2023-04-29T07:38:48.446Z,14.5714
2023-04-29T07:39:48.475Z,14.5714
2023-04-29T07:40:48.509Z,14.5
2023-04-29T07:41:48.543Z,14.5
2023-04-29T07:42:48.603Z,14.5
2023-04-29T07:43:48.654Z,14.5
2023-04-29T07:44:48.663Z,14.5
2023-04-29T07:45:48.752Z,14.5
2023-04-29T07:46:48.823Z,14.5
2023-04-29T07:47:48.815Z,14.5
2023-04-29T07:48:48.837Z,14.5
2023-04-29T07:49:48.851Z,14.5
2023-04-29T07:50:48.892Z,14.5
2023-04-29T07:51:48.928Z,14.5
2023-04-29T07:52:48.972Z,14.5
2023-04-29T07:53:49.014Z,14.5
2023-04-29T07:54:49.031Z,14.5
2023-04-29T07:55:49.075Z,14.5
2023-04-29T07:56:49.104Z,14.5
2023-04-29T07:57:49.156Z,14.5
2023-04-29T07:58:49.190Z,14.5
2023-04-29T07:59:49.259Z,14.5
2023-04-29T08:00:49.266Z,14.5714
2023-04-29T08:01:49.305Z,14.5714
2023-04-29T08:02:49.415Z,14.5714
2023-04-29T08:03:49.599Z,14.5714
2023-04-29T08:04:49.681Z,14.5714
2023-04-29T08:05:49.658Z,14.5714
2023-04-29T08:06:49.498Z,14.6429
2023-04-29T08:07:49.540Z,14.5714
2023-04-29T08:08:49.579Z,14.6429
2023-04-29T08:09:49.636Z,14.6429
2023-04-29T08:10:49.652Z,14.6429
2023-04-29T08:11:49.691Z,14.6429
2023-04-29T08:12:49.731Z,14.6429
2023-04-29T08:13:49.772Z,14.6429
2023-04-29T08:14:49.808Z,14.6429
2023-04-29T08:15:49.901Z,14.6429
2023-04-29T08:16:49.886Z,14.6429
2023-04-29T08:17:49.956Z,14.6429
2023-04-29T08:18:49.972Z,14.6429
2023-04-29T08:19:50.016Z,14.7143
2023-04-29T08:20:50.081Z,14.6429
2023-04-29T08:21:50.078Z,14.6429
2023-04-29T08:22:50.112Z,14.6429
2023-04-29T08:23:50.168Z,14.6429
2023-04-29T08:24:50.272Z,14.6429
2023-04-29T08:25:50.240Z,14.6429
2023-04-29T08:26:50.270Z,14.6429
2023-04-29T08:27:50.307Z,14.7143
2023-04-29T08:28:50.344Z,14.6429
2023-04-29T08:29:50.390Z,14.6429
2023-04-29T08:30:50.423Z,14.6429
2023-04-29T08:31:50.533Z,14.6429
2023-04-29T08:32:50.542Z,14.6429
2023-04-29T08:33:50.540Z,14.6429
2023-04-29T08:34:50.682Z,14.6429
2023-04-29T08:35:50.624Z,14.6429
2023-04-29T08:36:50.647Z,14.6429
2023-04-29T08:37:50.682Z,14.6429
2023-04-29T08:38:50.730Z,14.6429
2023-04-29T08:39:50.770Z,14.6429
2023-04-29T08:40:50.799Z,14.6429
2023-04-29T08:41:50.833Z,14.6429
2023-04-29T08:42:50.878Z,14.5714
2023-04-29T08:43:50.922Z,14.5714
2023-04-29T08:44:51.228Z,14.5714
2023-04-29T08:45:51.045Z,14.5714
2023-04-29T08:46:51.081Z,14.5
2023-04-29T08:47:51.152Z,14.5
2023-04-29T08:48:51.163Z,14.5
2023-04-29T08:49:51.145Z,14.5
2023-04-29T08:50:51.188Z,14.4286
2023-04-29T08:51:51.237Z,14.4286
2023-04-29T08:52:51.263Z,14.4286
2023-04-29T08:53:51.305Z,14.4286
2023-04-29T08:54:51.536Z,14.4286
2023-04-29T08:55:51.378Z,14.3571
2023-04-29T08:56:51.422Z,14.3571
2023-04-29T08:57:51.456Z,14.3571
2023-04-29T08:58:51.489Z,14.3571
2023-04-29T08:59:51.539Z,14.2857
2023-04-29T09:00:51.605Z,14.2857
2023-04-29T09:01:51.601Z,14.2857
2023-04-29T09:02:51.738Z,14.2857
2023-04-29T09:03:51.883Z,14.2143
2023-04-29T09:04:51.965Z,14.2143
2023-04-29T09:05:51.744Z,14.2143
2023-04-29T09:06:51.780Z,14.2143
2023-04-29T09:07:51.826Z,14.2143
2023-04-29T09:08:51.862Z,14.2143
2023-04-29T09:09:51.895Z,14.1429
2023-04-29T09:10:51.918Z,14.1429
2023-04-29T09:11:51.960Z,14.1429
2023-04-29T09:12:52.001Z,14.2143
2023-04-29T09:13:52.037Z,14.1429
2023-04-29T09:14:52.280Z,14.2143
2023-04-29T09:15:52.106Z,14.2143
2023-04-29T09:16:52.339Z,14.2143
2023-04-29T09:17:52.225Z,14.2143
2023-04-29T09:18:52.257Z,14.2143
2023-04-29T09:19:52.255Z,14.2143
2023-04-29T09:20:52.302Z,14.2143
2023-04-29T09:21:52.330Z,14.2143
2023-04-29T09:22:52.375Z,14.2143
2023-04-29T09:23:52.521Z,14.2143
2023-04-29T09:24:52.631Z,14.2143
2023-04-29T09:25:52.480Z,14.2143
2023-04-29T09:26:52.536Z,14.2143
2023-04-29T09:27:52.561Z,14.2143
2023-04-29T09:28:52.588Z,14.2143
2023-04-29T09:29:52.625Z,14.2857
2023-04-29T09:30:52.661Z,14.2857
2023-04-29T09:31:52.726Z,14.2857
2023-04-29T09:32:52.812Z,14.2857
2023-04-29T09:33:52.779Z,14.2857
2023-04-29T09:34:53.108Z,14.2857
2023-04-29T09:35:52.850Z,14.2857
2023-04-29T09:36:52.894Z,14.2857
2023-04-29T09:37:52.920Z,14.3571
2023-04-29T09:38:52.965Z,14.3571
2023-04-29T09:39:53.001Z,14.3571
2023-04-29T09:40:59.417Z,14.3571
2023-04-29T09:41:53.090Z,14.3571
2023-04-29T09:42:53.130Z,14.3571
2023-04-29T09:43:53.169Z,14.3571
2023-04-29T09:44:53.382Z,14.3571
2023-04-29T09:45:53.329Z,14.3571
2023-04-29T09:46:53.284Z,14.3571
2023-04-29T09:47:53.348Z,14.3571
2023-04-29T09:48:53.361Z,14.3571
2023-04-29T09:49:53.410Z,14.3571
2023-04-29T09:50:53.424Z,14.3571
2023-04-29T09:51:53.463Z,14.3571
2023-04-29T09:52:53.508Z,14.3571
2023-04-29T09:53:53.535Z,14.3571
2023-04-29T09:54:53.815Z,14.3571
2023-04-29T09:55:53.629Z,14.3571
2023-04-29T09:56:53.656Z,14.3571
2023-04-29T09:57:53.691Z,14.3571
2023-04-29T09:58:53.738Z,14.3571
2023-04-29T09:59:53.796Z,14.3571
2023-04-29T10:00:53.827Z,14.4286
2023-04-29T10:01:54.114Z,14.4286
2023-04-29T10:02:54.028Z,14.4286
2023-04-29T10:03:53.952Z,14.5
2023-04-29T10:04:54.406Z,14.5
2023-04-29T10:05:54.010Z,14.5714
2023-04-29T10:06:54.047Z,14.5714
2023-04-29T10:07:54.084Z,14.6429
2023-04-29T10:08:54.117Z,14.6429
2023-04-29T10:09:54.160Z,14.7143
2023-04-29T10:10:54.187Z,14.7143
2023-04-29T10:11:54.224Z,14.7143
2023-04-29T10:12:54.264Z,14.7143
2023-04-29T10:13:54.305Z,14.7143
2023-04-29T10:14:54.602Z,14.7143
2023-04-29T10:15:54.394Z,14.7143
2023-04-29T10:16:54.415Z,14.7857
2023-04-29T10:17:54.462Z,14.7857
2023-04-29T10:41:50.947Z,14.7857
2023-04-29T10:42:50.988Z,14.7857
2023-04-29T10:43:51.043Z,14.7857
2023-04-29T10:44:51.274Z,14.7857
2023-04-29T10:45:51.117Z,14.7857
2023-04-29T10:46:51.183Z,14.8571
2023-04-29T10:47:51.315Z,14.8571
2023-04-29T10:48:51.241Z,14.9286
2023-04-29T10:49:51.282Z,14.9286
2023-04-29T10:50:51.329Z,15
2023-04-29T10:51:51.366Z,15
2023-04-29T10:52:51.413Z,15
2023-04-29T10:53:51.440Z,15
2023-04-29T10:54:51.740Z,15
2023-04-29T10:55:51.523Z,15
2023-04-29T10:56:51.565Z,15
2023-04-29T10:57:51.604Z,15
2023-04-29T10:58:51.633Z,15.0714
2023-04-29T10:59:51.672Z,15.0714
2023-04-29T11:00:51.780Z,15.1429
2023-04-29T11:01:51.753Z,15.2143
2023-04-29T11:02:51.862Z,15.2857
2023-04-29T11:03:51.999Z,15.3571
2023-04-29T11:04:52.176Z,15.4286
2023-04-29T11:05:51.915Z,15.5
2023-04-29T11:06:51.947Z,15.5714
2023-04-29T11:07:52.034Z,15.5714
2023-04-29T11:08:52.033Z,15.6429
2023-04-29T11:09:52.318Z,15.7143
2023-04-29T11:10:52.102Z,15.7857
2023-04-29T11:11:52.188Z,15.8571
2023-04-29T11:12:52.189Z,15.8571
2023-04-29T11:13:52.226Z,15.8571
2023-04-29T11:14:52.499Z,15.9286
2023-04-29T11:15:52.316Z,15.9286
2023-04-29T11:16:52.439Z,15.9286
2023-04-29T11:17:52.422Z,15.9286
2023-04-29T11:18:52.438Z,15.9286
2023-04-29T11:19:52.752Z,15.9286
2023-04-29T11:21:14.000Z,15.9286
2023-04-29T11:22:14.018Z,16
2023-04-29T11:23:14.067Z,16
2023-04-29T11:24:14.132Z,15.9286
2023-04-29T11:25:14.150Z,15.9286
2023-04-29T11:26:14.190Z,15.9286
2023-04-29T11:27:14.229Z,15.9286
2023-04-29T11:28:14.275Z,15.8571
2023-04-29T11:29:14.305Z,15.8571
2023-04-29T11:30:14.345Z,15.8571
2023-04-29T11:31:14.451Z,15.8571
2023-04-29T11:32:14.522Z,15.8571
2023-04-29T11:33:14.492Z,15.8571
2023-04-29T11:34:14.486Z,15.8571
2023-04-29T11:35:14.581Z,15.9286
2023-04-29T11:36:14.580Z,16
2023-04-29T11:37:14.626Z,16
2023-04-29T11:38:14.641Z,16.0714
2023-04-29T11:39:14.694Z,16.1429
2023-04-29T11:40:14.739Z,16.2143
2023-04-29T11:41:14.759Z,16.2857
2023-04-29T11:42:14.796Z,16.2857
2023-04-29T11:43:14.839Z,16.2857
2023-04-29T11:44:14.867Z,16.2857
2023-04-29T11:45:14.920Z,16.2857
2023-04-29T11:46:15.032Z,16.2857
2023-04-29T11:47:14.988Z,16.2857
2023-04-29T11:48:15.025Z,16.2143
2023-04-29T11:49:15.069Z,16.2143
2023-04-29T11:50:15.096Z,16.1429
2023-04-29T11:51:15.136Z,16.1429
2023-04-29T11:52:15.181Z,16.0714
2023-04-29T11:53:15.226Z,16.0714
2023-04-29T11:54:15.279Z,16
2023-04-29T11:55:15.317Z,16
2023-04-29T11:56:15.339Z,15.9286
2023-04-29T11:57:15.376Z,15.9286
2023-04-29T11:58:15.416Z,15.9286
2023-04-29T11:59:15.445Z,15.9286
2023-04-29T12:00:15.482Z,15.9286
2023-04-29T12:01:15.525Z,15.9286
2023-04-29T12:02:15.550Z,15.9286
2023-04-29T12:03:15.758Z,16
2023-04-29T12:04:15.870Z,16
2023-04-29T12:05:16.314Z,16
2023-04-29T12:06:15.704Z,16
2023-04-29T12:07:15.738Z,16
2023-04-29T12:08:15.772Z,16
2023-04-29T12:09:15.802Z,16.0714
2023-04-29T12:10:15.852Z,16.0714
2023-04-29T12:11:15.923Z,16.2143
2023-04-29T12:12:15.922Z,16.2857
2023-04-29T12:13:15.956Z,16.3571
2023-04-29T12:14:15.989Z,16.5
2023-04-29T12:15:16.031Z,16.5714
2023-04-29T12:16:16.105Z,16.5714
2023-04-29T12:17:16.108Z,16.5714
2023-04-29T12:18:16.141Z,16.5714
2023-04-29T12:19:16.172Z,16.5714
2023-04-29T12:20:16.215Z,16.5
2023-04-29T12:21:16.243Z,16.5
2023-04-29T12:22:16.274Z,16.5
2023-04-29T12:23:16.313Z,16.4286
2023-04-29T12:24:16.342Z,16.4286
2023-04-29T12:25:16.404Z,16.5
2023-04-29T12:26:16.414Z,16.5
2023-04-29T12:27:16.467Z,16.5714
2023-04-29T12:28:16.495Z,16.6429
2023-04-29T12:29:16.537Z,16.6429
2023-04-29T12:30:16.581Z,16.7143
2023-04-29T12:31:16.623Z,16.7143
2023-04-29T12:32:16.645Z,16.7143
2023-04-29T12:33:16.681Z,16.7143
2023-04-29T12:34:16.716Z,16.7143
2023-04-29T12:35:16.758Z,16.7143
2023-04-29T12:36:16.802Z,16.7857
2023-04-29T12:37:16.829Z,16.7857
2023-04-29T12:38:16.862Z,16.8571
2023-04-29T12:39:16.908Z,16.9286
2023-04-29T12:40:16.946Z,17
2023-04-29T12:41:16.970Z,17.0714
2023-04-29T12:42:17.019Z,17.1429
2023-04-29T12:43:17.051Z,17.2857
2023-04-29T12:44:17.161Z,17.2857
2023-04-29T12:45:17.133Z,17.3571
2023-04-29T12:46:17.211Z,17.4286